Essington, United Kingdom
Current Conditions -  °F | °C
As of 5:20 PM on Friday 19 Dec 2014 (Local Time) from EGBB Reporting Station
Clear Clear  
Wind Chill: 38°   Ceiling: Unl
Heat Index: 45°   Visibility: 6mi
Dew Point: 34°   Wind: 14mph
Humidity: 66%   Direction: 260°W
Pressure: 30.06"   Gusts: NA
Location:  52.63°N, 2.06°W
Report Text: EGBB 191720Z 26012KT CAVOK 07/01 Q1018
Loading
Personal Weather Stations






























Interactive Weather Map New forecast layout! Learn more

10-Day Weather Forecast

Advertisements
Track Severe Weather on mobile